<?xml version="1.0" encoding="UTF-8" standalone="no" ?>
<gpx xmlns="http://www.topografix.com/GPX/1/1" xmlns:xsi="http://www.w3.org/2001/XMLSchema-instance" xsi:schemaLocation="http://www.topografix.com/GPX/1/1 http://www.topografix.com/GPX/1/1/gpx.xsd" version="1.1" creator="VisuGPX - https://www.visugpx.com">
  <metadata>
    <name>Lobbes Thuin 21.06</name>
    <desc><![CDATA[Lobbes: Collégiale, Portelette
Vallée de la Sambre
Abbaye d\'Aulne
Thuin: Beffroi, Jardins suspendus
Parcours mixte, valloné et boisé]]></desc>
  </metadata>
  <trk>
    <name><![CDATA[LobbesThuin]]></name>
    <trkseg>
      <trkpt lat="50.3467" lon="4.26459">
        <ele>138</ele>
        <time>1970-01-01T00:00:01.000Z</time>
      </trkpt>
      <trkpt lat="50.34653" lon="4.26464">
        <ele>134</ele>
        <time>1970-01-01T00:00:02.000Z</time>
      </trkpt>
      <trkpt lat="50.34644" lon="4.26467">
        <ele>133</ele>
        <time>1970-01-01T00:00:03.000Z</time>
      </trkpt>
      <trkpt lat="50.34644" lon="4.26467">
        <ele>133</ele>
        <time>1970-01-01T00:00:04.000Z</time>
      </trkpt>
      <trkpt lat="50.34616" lon="4.26483">
        <ele>132</ele>
        <time>1970-01-01T00:00:05.000Z</time>
      </trkpt>
      <trkpt lat="50.34618" lon="4.26494">
        <ele>132</ele>
        <time>1970-01-01T00:00:06.000Z</time>
      </trkpt>
      <trkpt lat="50.34616" lon="4.26497">
        <ele>132</ele>
        <time>1970-01-01T00:00:07.000Z</time>
      </trkpt>
      <trkpt lat="50.3462" lon="4.26505">
        <ele>136</ele>
        <time>1970-01-01T00:00:08.000Z</time>
      </trkpt>
      <trkpt lat="50.34637" lon="4.26505">
        <ele>137</ele>
        <time>1970-01-01T00:00:09.000Z</time>
      </trkpt>
      <trkpt lat="50.34637" lon="4.26514">
        <ele>138</ele>
        <time>1970-01-01T00:00:10.000Z</time>
      </trkpt>
      <trkpt lat="50.34631" lon="4.26529">
        <ele>138</ele>
        <time>1970-01-01T00:00:11.000Z</time>
      </trkpt>
      <trkpt lat="50.34629" lon="4.26546">
        <ele>138</ele>
        <time>1970-01-01T00:00:12.000Z</time>
      </trkpt>
      <trkpt lat="50.34624" lon="4.26554">
        <ele>138</ele>
        <time>1970-01-01T00:00:13.000Z</time>
      </trkpt>
      <trkpt lat="50.34624" lon="4.26563">
        <ele>139</ele>
        <time>1970-01-01T00:00:14.000Z</time>
      </trkpt>
      <trkpt lat="50.34627" lon="4.2657">
        <ele>139</ele>
        <time>1970-01-01T00:00:15.000Z</time>
      </trkpt>
      <trkpt lat="50.34633" lon="4.2657">
        <ele>140</ele>
        <time>1970-01-01T00:00:16.000Z</time>
      </trkpt>
      <trkpt lat="50.34618" lon="4.26616">
        <ele>145</ele>
        <time>1970-01-01T00:00:17.000Z</time>
      </trkpt>
      <trkpt lat="50.34618" lon="4.26632">
        <ele>145</ele>
        <time>1970-01-01T00:00:18.000Z</time>
      </trkpt>
      <trkpt lat="50.34617" lon="4.26636">
        <ele>145</ele>
        <time>1970-01-01T00:00:19.000Z</time>
      </trkpt>
      <trkpt lat="50.34616" lon="4.26642">
        <ele>146</ele>
        <time>1970-01-01T00:00:20.000Z</time>
      </trkpt>
      <trkpt lat="50.34616" lon="4.26642">
        <ele>146</ele>
        <time>1970-01-01T00:00:21.000Z</time>
      </trkpt>
      <trkpt lat="50.34632" lon="4.26658">
        <ele>147</ele>
        <time>1970-01-01T00:00:22.000Z</time>
      </trkpt>
      <trkpt lat="50.34658" lon="4.26596">
        <ele>146</ele>
        <time>1970-01-01T00:00:23.000Z</time>
      </trkpt>
      <trkpt lat="50.34659" lon="4.26593">
        <ele>146</ele>
        <time>1970-01-01T00:00:24.000Z</time>
      </trkpt>
      <trkpt lat="50.34661" lon="4.26544">
        <ele>140</ele>
        <time>1970-01-01T00:00:25.000Z</time>
      </trkpt>
      <trkpt lat="50.34663" lon="4.26538">
        <ele>139</ele>
        <time>1970-01-01T00:00:26.000Z</time>
      </trkpt>
      <trkpt lat="50.34698" lon="4.26499">
        <ele>140</ele>
        <time>1970-01-01T00:00:27.000Z</time>
      </trkpt>
      <trkpt lat="50.347" lon="4.26492">
        <ele>140</ele>
        <time>1970-01-01T00:00:28.000Z</time>
      </trkpt>
      <trkpt lat="50.34704" lon="4.26492">
        <ele>140</ele>
        <time>1970-01-01T00:00:29.000Z</time>
      </trkpt>
      <trkpt lat="50.34721" lon="4.26497">
        <ele>141</ele>
        <time>1970-01-01T00:00:30.000Z</time>
      </trkpt>
      <trkpt lat="50.34732" lon="4.26503">
        <ele>146</ele>
        <time>1970-01-01T00:00:31.000Z</time>
      </trkpt>
      <trkpt lat="50.34731" lon="4.26556">
        <ele>147</ele>
        <time>1970-01-01T00:00:32.000Z</time>
      </trkpt>
      <trkpt lat="50.34753" lon="4.26535">
        <ele>150</ele>
        <time>1970-01-01T00:00:33.000Z</time>
      </trkpt>
      <trkpt lat="50.3476" lon="4.26531">
        <ele>150</ele>
        <time>1970-01-01T00:00:34.000Z</time>
      </trkpt>
      <trkpt lat="50.34763" lon="4.2653">
        <ele>150</ele>
        <time>1970-01-01T00:00:35.000Z</time>
      </trkpt>
      <trkpt lat="50.34764" lon="4.26529">
        <ele>150</ele>
        <time>1970-01-01T00:00:36.000Z</time>
      </trkpt>
      <trkpt lat="50.34801" lon="4.26539">
        <ele>151</ele>
        <time>1970-01-01T00:00:37.000Z</time>
      </trkpt>
      <trkpt lat="50.34813" lon="4.26539">
        <ele>152</ele>
        <time>1970-01-01T00:00:38.000Z</time>
      </trkpt>
      <trkpt lat="50.34895" lon="4.26546">
        <ele>154</ele>
        <time>1970-01-01T00:00:39.000Z</time>
      </trkpt>
      <trkpt lat="50.34916" lon="4.26548">
        <ele>154</ele>
        <time>1970-01-01T00:00:40.000Z</time>
      </trkpt>
      <trkpt lat="50.35022" lon="4.26591">
        <ele>158</ele>
        <time>1970-01-01T00:00:41.000Z</time>
      </trkpt>
      <trkpt lat="50.35048" lon="4.26585">
        <ele>158</ele>
        <time>1970-01-01T00:00:42.000Z</time>
      </trkpt>
      <trkpt lat="50.35052" lon="4.26574">
        <ele>155</ele>
        <time>1970-01-01T00:00:43.000Z</time>
      </trkpt>
      <trkpt lat="50.35054" lon="4.26576">
        <ele>155</ele>
        <time>1970-01-01T00:00:44.000Z</time>
      </trkpt>
      <trkpt lat="50.3508" lon="4.26592">
        <ele>158</ele>
        <time>1970-01-01T00:00:45.000Z</time>
      </trkpt>
      <trkpt lat="50.35086" lon="4.26567">
        <ele>157</ele>
        <time>1970-01-01T00:00:46.000Z</time>
      </trkpt>
      <trkpt lat="50.35081" lon="4.26531">
        <ele>154</ele>
        <time>1970-01-01T00:00:47.000Z</time>
      </trkpt>
      <trkpt lat="50.35084" lon="4.26497">
        <ele>153</ele>
        <time>1970-01-01T00:00:48.000Z</time>
      </trkpt>
      <trkpt lat="50.35084" lon="4.26464">
        <ele>152</ele>
        <time>1970-01-01T00:00:49.000Z</time>
      </trkpt>
      <trkpt lat="50.35086" lon="4.26443">
        <ele>151</ele>
        <time>1970-01-01T00:00:50.000Z</time>
      </trkpt>
      <trkpt lat="50.35084" lon="4.26422">
        <ele>147</ele>
        <time>1970-01-01T00:00:51.000Z</time>
      </trkpt>
      <trkpt lat="50.35093" lon="4.26392">
        <ele>147</ele>
        <time>1970-01-01T00:00:52.000Z</time>
      </trkpt>
      <trkpt lat="50.35097" lon="4.26385">
        <ele>147</ele>
        <time>1970-01-01T00:00:53.000Z</time>
      </trkpt>
      <trkpt lat="50.35094" lon="4.26368">
        <ele>146</ele>
        <time>1970-01-01T00:00:54.000Z</time>
      </trkpt>
      <trkpt lat="50.3509" lon="4.2636">
        <ele>145</ele>
        <time>1970-01-01T00:00:55.000Z</time>
      </trkpt>
      <trkpt lat="50.35077" lon="4.26355">
        <ele>141</ele>
        <time>1970-01-01T00:00:56.000Z</time>
      </trkpt>
      <trkpt lat="50.35054" lon="4.26306">
        <ele>139</ele>
        <time>1970-01-01T00:00:57.000Z</time>
      </trkpt>
      <trkpt lat="50.35045" lon="4.26297">
        <ele>139</ele>
        <time>1970-01-01T00:00:58.000Z</time>
      </trkpt>
      <trkpt lat="50.35032" lon="4.26291">
        <ele>139</ele>
        <time>1970-01-01T00:00:59.000Z</time>
      </trkpt>
      <trkpt lat="50.35013" lon="4.26282">
        <ele>139</ele>
        <time>1970-01-01T00:01:00.000Z</time>
      </trkpt>
      <trkpt lat="50.35009" lon="4.26277">
        <ele>139</ele>
        <time>1970-01-01T00:01:01.000Z</time>
      </trkpt>
      <trkpt lat="50.35009" lon="4.26198">
        <ele>140</ele>
        <time>1970-01-01T00:01:02.000Z</time>
      </trkpt>
      <trkpt lat="50.35003" lon="4.26174">
        <ele>139</ele>
        <time>1970-01-01T00:01:03.000Z</time>
      </trkpt>
      <trkpt lat="50.35" lon="4.2617">
        <ele>138</ele>
        <time>1970-01-01T00:01:04.000Z</time>
      </trkpt>
      <trkpt lat="50.34983" lon="4.26155">
        <ele>138</ele>
        <time>1970-01-01T00:01:05.000Z</time>
      </trkpt>
      <trkpt lat="50.3498" lon="4.2615">
        <ele>138</ele>
        <time>1970-01-01T00:01:06.000Z</time>
      </trkpt>
      <trkpt lat="50.34979" lon="4.26142">
        <ele>138</ele>
        <time>1970-01-01T00:01:07.000Z</time>
      </trkpt>
      <trkpt lat="50.34974" lon="4.26122">
        <ele>138</ele>
        <time>1970-01-01T00:01:08.000Z</time>
      </trkpt>
      <trkpt lat="50.34972" lon="4.2609">
        <ele>138</ele>
        <time>1970-01-01T00:01:09.000Z</time>
      </trkpt>
      <trkpt lat="50.34972" lon="4.26081">
        <ele>140</ele>
        <time>1970-01-01T00:01:10.000Z</time>
      </trkpt>
      <trkpt lat="50.34979" lon="4.26025">
        <ele>140</ele>
        <time>1970-01-01T00:01:11.000Z</time>
      </trkpt>
      <trkpt lat="50.3498" lon="4.25997">
        <ele>142</ele>
        <time>1970-01-01T00:01:12.000Z</time>
      </trkpt>
      <trkpt lat="50.34979" lon="4.25975">
        <ele>142</ele>
        <time>1970-01-01T00:01:13.000Z</time>
      </trkpt>
      <trkpt lat="50.3497" lon="4.25913">
        <ele>143</ele>
        <time>1970-01-01T00:01:14.000Z</time>
      </trkpt>
      <trkpt lat="50.3497" lon="4.25899">
        <ele>143</ele>
        <time>1970-01-01T00:01:15.000Z</time>
      </trkpt>
      <trkpt lat="50.34972" lon="4.25889">
        <ele>143</ele>
        <time>1970-01-01T00:01:16.000Z</time>
      </trkpt>
      <trkpt lat="50.34974" lon="4.25888">
        <ele>143</ele>
        <time>1970-01-01T00:01:17.000Z</time>
      </trkpt>
      <trkpt lat="50.34979" lon="4.25873">
        <ele>143</ele>
        <time>1970-01-01T00:01:18.000Z</time>
      </trkpt>
      <trkpt lat="50.34966" lon="4.25867">
        <ele>143</ele>
        <time>1970-01-01T00:01:19.000Z</time>
      </trkpt>
      <trkpt lat="50.34951" lon="4.25799">
        <ele>144</ele>
        <time>1970-01-01T00:01:20.000Z</time>
      </trkpt>
      <trkpt lat="50.3493" lon="4.25686">
        <ele>144</ele>
        <time>1970-01-01T00:01:21.000Z</time>
      </trkpt>
      <trkpt lat="50.34925" lon="4.25606">
        <ele>140</ele>
        <time>1970-01-01T00:01:22.000Z</time>
      </trkpt>
      <trkpt lat="50.34927" lon="4.25604">
        <ele>140</ele>
        <time>1970-01-01T00:01:23.000Z</time>
      </trkpt>
      <trkpt lat="50.34942" lon="4.25569">
        <ele>138</ele>
        <time>1970-01-01T00:01:24.000Z</time>
      </trkpt>
      <trkpt lat="50.34968" lon="4.25495">
        <ele>137</ele>
        <time>1970-01-01T00:01:25.000Z</time>
      </trkpt>
      <trkpt lat="50.3497" lon="4.25452">
        <ele>135</ele>
        <time>1970-01-01T00:01:26.000Z</time>
      </trkpt>
      <trkpt lat="50.34962" lon="4.25417">
        <ele>132</ele>
        <time>1970-01-01T00:01:27.000Z</time>
      </trkpt>
      <trkpt lat="50.34951" lon="4.25404">
        <ele>130</ele>
        <time>1970-01-01T00:01:28.000Z</time>
      </trkpt>
      <trkpt lat="50.34957" lon="4.25374">
        <ele>131</ele>
        <time>1970-01-01T00:01:29.000Z</time>
      </trkpt>
      <trkpt lat="50.34964" lon="4.25319">
        <ele>129</ele>
        <time>1970-01-01T00:01:30.000Z</time>
      </trkpt>
      <trkpt lat="50.34966" lon="4.25269">
        <ele>128</ele>
        <time>1970-01-01T00:01:31.000Z</time>
      </trkpt>
      <trkpt lat="50.34959" lon="4.25209">
        <ele>126</ele>
        <time>1970-01-01T00:01:32.000Z</time>
      </trkpt>
      <trkpt lat="50.34955" lon="4.25174">
        <ele>126</ele>
        <time>1970-01-01T00:01:33.000Z</time>
      </trkpt>
      <trkpt lat="50.34919" lon="4.2505">
        <ele>122</ele>
        <time>1970-01-01T00:01:34.000Z</time>
      </trkpt>
      <trkpt lat="50.34914" lon="4.25014">
        <ele>118</ele>
        <time>1970-01-01T00:01:35.000Z</time>
      </trkpt>
      <trkpt lat="50.34908" lon="4.24823">
        <ele>125</ele>
        <time>1970-01-01T00:01:36.000Z</time>
      </trkpt>
      <trkpt lat="50.34908" lon="4.24814">
        <ele>126</ele>
        <time>1970-01-01T00:01:37.000Z</time>
      </trkpt>
      <trkpt lat="50.349" lon="4.24789">
        <ele>128</ele>
        <time>1970-01-01T00:01:38.000Z</time>
      </trkpt>
      <trkpt lat="50.34899" lon="4.24782">
        <ele>128</ele>
        <time>1970-01-01T00:01:39.000Z</time>
      </trkpt>
      <trkpt lat="50.349" lon="4.24782">
        <ele>128</ele>
        <time>1970-01-01T00:01:40.000Z</time>
      </trkpt>
      <trkpt lat="50.34914" lon="4.24773">
        <ele>130</ele>
        <time>1970-01-01T00:01:41.000Z</time>
      </trkpt>
      <trkpt lat="50.3493" lon="4.24769">
        <ele>132</ele>
        <time>1970-01-01T00:01:42.000Z</time>
      </trkpt>
      <trkpt lat="50.34943" lon="4.24775">
        <ele>131</ele>
        <time>1970-01-01T00:01:43.000Z</time>
      </trkpt>
      <trkpt lat="50.35024" lon="4.24699">
        <ele>137</ele>
        <time>1970-01-01T00:01:44.000Z</time>
      </trkpt>
      <trkpt lat="50.35058" lon="4.24662">
        <ele>138</ele>
        <time>1970-01-01T00:01:45.000Z</time>
      </trkpt>
      <trkpt lat="50.35135" lon="4.24563">
        <ele>141</ele>
        <time>1970-01-01T00:01:46.000Z</time>
      </trkpt>
      <trkpt lat="50.35184" lon="4.24454">
        <ele>145</ele>
        <time>1970-01-01T00:01:47.000Z</time>
      </trkpt>
      <trkpt lat="50.35223" lon="4.24332">
        <ele>145</ele>
        <time>1970-01-01T00:01:48.000Z</time>
      </trkpt>
      <trkpt lat="50.35254" lon="4.24223">
        <ele>145</ele>
        <time>1970-01-01T00:01:49.000Z</time>
      </trkpt>
      <trkpt lat="50.35262" lon="4.24196">
        <ele>144</ele>
        <time>1970-01-01T00:01:50.000Z</time>
      </trkpt>
      <trkpt lat="50.35287" lon="4.24117">
        <ele>145</ele>
        <time>1970-01-01T00:01:51.000Z</time>
      </trkpt>
      <trkpt lat="50.35318" lon="4.24059">
        <ele>145</ele>
        <time>1970-01-01T00:01:52.000Z</time>
      </trkpt>
      <trkpt lat="50.35382" lon="4.23943">
        <ele>146</ele>
        <time>1970-01-01T00:01:53.000Z</time>
      </trkpt>
      <trkpt lat="50.35457" lon="4.238">
        <ele>150</ele>
        <time>1970-01-01T00:01:54.000Z</time>
      </trkpt>
      <trkpt lat="50.35545" lon="4.2364">
        <ele>152</ele>
        <time>1970-01-01T00:01:55.000Z</time>
      </trkpt>
      <trkpt lat="50.35607" lon="4.23544">
        <ele>153</ele>
        <time>1970-01-01T00:01:56.000Z</time>
      </trkpt>
      <trkpt lat="50.35625" lon="4.23522">
        <ele>153</ele>
        <time>1970-01-01T00:01:57.000Z</time>
      </trkpt>
      <trkpt lat="50.35644" lon="4.23506">
        <ele>154</ele>
        <time>1970-01-01T00:01:58.000Z</time>
      </trkpt>
      <trkpt lat="50.35664" lon="4.2349">
        <ele>154</ele>
        <time>1970-01-01T00:01:59.000Z</time>
      </trkpt>
      <trkpt lat="50.35728" lon="4.23454">
        <ele>158</ele>
        <time>1970-01-01T00:02:00.000Z</time>
      </trkpt>
      <trkpt lat="50.35886" lon="4.23381">
        <ele>166</ele>
        <time>1970-01-01T00:02:01.000Z</time>
      </trkpt>
      <trkpt lat="50.35991" lon="4.23327">
        <ele>167</ele>
        <time>1970-01-01T00:02:02.000Z</time>
      </trkpt>
      <trkpt lat="50.36045" lon="4.23286">
        <ele>167</ele>
        <time>1970-01-01T00:02:03.000Z</time>
      </trkpt>
      <trkpt lat="50.36182" lon="4.23164">
        <ele>163</ele>
        <time>1970-01-01T00:02:04.000Z</time>
      </trkpt>
      <trkpt lat="50.36205" lon="4.23215">
        <ele>163</ele>
        <time>1970-01-01T00:02:05.000Z</time>
      </trkpt>
      <trkpt lat="50.36316" lon="4.2353">
        <ele>172</ele>
        <time>1970-01-01T00:02:06.000Z</time>
      </trkpt>
      <trkpt lat="50.36358" lon="4.23742">
        <ele>187</ele>
        <time>1970-01-01T00:02:07.000Z</time>
      </trkpt>
      <trkpt lat="50.36367" lon="4.23773">
        <ele>194</ele>
        <time>1970-01-01T00:02:08.000Z</time>
      </trkpt>
      <trkpt lat="50.36378" lon="4.23786">
        <ele>195</ele>
        <time>1970-01-01T00:02:09.000Z</time>
      </trkpt>
      <trkpt lat="50.3641" lon="4.23786">
        <ele>196</ele>
        <time>1970-01-01T00:02:10.000Z</time>
      </trkpt>
      <trkpt lat="50.36442" lon="4.238">
        <ele>199</ele>
        <time>1970-01-01T00:02:11.000Z</time>
      </trkpt>
      <trkpt lat="50.36478" lon="4.23803">
        <ele>200</ele>
        <time>1970-01-01T00:02:12.000Z</time>
      </trkpt>
      <trkpt lat="50.36535" lon="4.23792">
        <ele>200</ele>
        <time>1970-01-01T00:02:13.000Z</time>
      </trkpt>
      <trkpt lat="50.36549" lon="4.23786">
        <ele>200</ele>
        <time>1970-01-01T00:02:14.000Z</time>
      </trkpt>
      <trkpt lat="50.36594" lon="4.23756">
        <ele>199</ele>
        <time>1970-01-01T00:02:15.000Z</time>
      </trkpt>
      <trkpt lat="50.36626" lon="4.23753">
        <ele>199</ele>
        <time>1970-01-01T00:02:16.000Z</time>
      </trkpt>
      <trkpt lat="50.36674" lon="4.23764">
        <ele>198</ele>
        <time>1970-01-01T00:02:17.000Z</time>
      </trkpt>
      <trkpt lat="50.36708" lon="4.23778">
        <ele>198</ele>
        <time>1970-01-01T00:02:18.000Z</time>
      </trkpt>
      <trkpt lat="50.36728" lon="4.238">
        <ele>199</ele>
        <time>1970-01-01T00:02:19.000Z</time>
      </trkpt>
      <trkpt lat="50.36847" lon="4.23786">
        <ele>196</ele>
        <time>1970-01-01T00:02:20.000Z</time>
      </trkpt>
      <trkpt lat="50.36865" lon="4.23786">
        <ele>196</ele>
        <time>1970-01-01T00:02:21.000Z</time>
      </trkpt>
      <trkpt lat="50.36911" lon="4.23786">
        <ele>196</ele>
        <time>1970-01-01T00:02:22.000Z</time>
      </trkpt>
      <trkpt lat="50.36972" lon="4.23761">
        <ele>197</ele>
        <time>1970-01-01T00:02:23.000Z</time>
      </trkpt>
      <trkpt lat="50.36993" lon="4.23761">
        <ele>198</ele>
        <time>1970-01-01T00:02:24.000Z</time>
      </trkpt>
      <trkpt lat="50.37018" lon="4.2375">
        <ele>199</ele>
        <time>1970-01-01T00:02:25.000Z</time>
      </trkpt>
      <trkpt lat="50.37106" lon="4.23694">
        <ele>199</ele>
        <time>1970-01-01T00:02:26.000Z</time>
      </trkpt>
      <trkpt lat="50.37138" lon="4.2368">
        <ele>200</ele>
        <time>1970-01-01T00:02:27.000Z</time>
      </trkpt>
      <trkpt lat="50.37183" lon="4.23647">
        <ele>200</ele>
        <time>1970-01-01T00:02:28.000Z</time>
      </trkpt>
      <trkpt lat="50.37204" lon="4.23625">
        <ele>199</ele>
        <time>1970-01-01T00:02:29.000Z</time>
      </trkpt>
      <trkpt lat="50.37213" lon="4.23619">
        <ele>199</ele>
        <time>1970-01-01T00:02:30.000Z</time>
      </trkpt>
      <trkpt lat="50.37223" lon="4.23622">
        <ele>199</ele>
        <time>1970-01-01T00:02:31.000Z</time>
      </trkpt>
      <trkpt lat="50.37252" lon="4.23639">
        <ele>200</ele>
        <time>1970-01-01T00:02:32.000Z</time>
      </trkpt>
      <trkpt lat="50.37254" lon="4.23614">
        <ele>200</ele>
        <time>1970-01-01T00:02:33.000Z</time>
      </trkpt>
      <trkpt lat="50.37263" lon="4.2358">
        <ele>198</ele>
        <time>1970-01-01T00:02:34.000Z</time>
      </trkpt>
      <trkpt lat="50.37283" lon="4.23558">
        <ele>198</ele>
        <time>1970-01-01T00:02:35.000Z</time>
      </trkpt>
      <trkpt lat="50.37352" lon="4.23535">
        <ele>200</ele>
        <time>1970-01-01T00:02:36.000Z</time>
      </trkpt>
      <trkpt lat="50.37379" lon="4.23527">
        <ele>200</ele>
        <time>1970-01-01T00:02:37.000Z</time>
      </trkpt>
      <trkpt lat="50.37391" lon="4.2351">
        <ele>200</ele>
        <time>1970-01-01T00:02:38.000Z</time>
      </trkpt>
      <trkpt lat="50.37393" lon="4.23508">
        <ele>200</ele>
        <time>1970-01-01T00:02:39.000Z</time>
      </trkpt>
      <trkpt lat="50.37443" lon="4.23438">
        <ele>198</ele>
        <time>1970-01-01T00:02:40.000Z</time>
      </trkpt>
      <trkpt lat="50.37454" lon="4.23323">
        <ele>195</ele>
        <time>1970-01-01T00:02:41.000Z</time>
      </trkpt>
      <trkpt lat="50.37466" lon="4.23298">
        <ele>195</ele>
        <time>1970-01-01T00:02:42.000Z</time>
      </trkpt>
      <trkpt lat="50.37532" lon="4.23251">
        <ele>196</ele>
        <time>1970-01-01T00:02:43.000Z</time>
      </trkpt>
      <trkpt lat="50.37547" lon="4.23248">
        <ele>195</ele>
        <time>1970-01-01T00:02:44.000Z</time>
      </trkpt>
      <trkpt lat="50.37553" lon="4.23256">
        <ele>196</ele>
        <time>1970-01-01T00:02:45.000Z</time>
      </trkpt>
      <trkpt lat="50.37589" lon="4.23318">
        <ele>198</ele>
        <time>1970-01-01T00:02:46.000Z</time>
      </trkpt>
      <trkpt lat="50.37593" lon="4.23332">
        <ele>198</ele>
        <time>1970-01-01T00:02:47.000Z</time>
      </trkpt>
      <trkpt lat="50.37595" lon="4.23332">
        <ele>198</ele>
        <time>1970-01-01T00:02:48.000Z</time>
      </trkpt>
      <trkpt lat="50.37607" lon="4.23332">
        <ele>197</ele>
        <time>1970-01-01T00:02:49.000Z</time>
      </trkpt>
      <trkpt lat="50.37645" lon="4.23323">
        <ele>196</ele>
        <time>1970-01-01T00:02:50.000Z</time>
      </trkpt>
      <trkpt lat="50.37666" lon="4.2334">
        <ele>197</ele>
        <time>1970-01-01T00:02:51.000Z</time>
      </trkpt>
      <trkpt lat="50.37679" lon="4.23351">
        <ele>197</ele>
        <time>1970-01-01T00:02:52.000Z</time>
      </trkpt>
      <trkpt lat="50.37696" lon="4.23357">
        <ele>197</ele>
        <time>1970-01-01T00:02:53.000Z</time>
      </trkpt>
      <trkpt lat="50.37707" lon="4.2334">
        <ele>197</ele>
        <time>1970-01-01T00:02:54.000Z</time>
      </trkpt>
      <trkpt lat="50.37775" lon="4.23109">
        <ele>198</ele>
        <time>1970-01-01T00:02:55.000Z</time>
      </trkpt>
      <trkpt lat="50.37778" lon="4.23086">
        <ele>198</ele>
        <time>1970-01-01T00:02:56.000Z</time>
      </trkpt>
      <trkpt lat="50.37791" lon="4.23005">
        <ele>198</ele>
        <time>1970-01-01T00:02:57.000Z</time>
      </trkpt>
      <trkpt lat="50.37828" lon="4.22909">
        <ele>199</ele>
        <time>1970-01-01T00:02:58.000Z</time>
      </trkpt>
      <trkpt lat="50.37855" lon="4.22926">
        <ele>199</ele>
        <time>1970-01-01T00:02:59.000Z</time>
      </trkpt>
      <trkpt lat="50.37957" lon="4.23022">
        <ele>200</ele>
        <time>1970-01-01T00:03:00.000Z</time>
      </trkpt>
      <trkpt lat="50.38064" lon="4.23127">
        <ele>200</ele>
        <time>1970-01-01T00:03:01.000Z</time>
      </trkpt>
      <trkpt lat="50.37877" lon="4.23658">
        <ele>202</ele>
        <time>1970-01-01T00:03:02.000Z</time>
      </trkpt>
      <trkpt lat="50.37743" lon="4.23863">
        <ele>204</ele>
        <time>1970-01-01T00:03:03.000Z</time>
      </trkpt>
      <trkpt lat="50.3774" lon="4.23863">
        <ele>204</ele>
        <time>1970-01-01T00:03:04.000Z</time>
      </trkpt>
      <trkpt lat="50.377" lon="4.23872">
        <ele>204</ele>
        <time>1970-01-01T00:03:05.000Z</time>
      </trkpt>
      <trkpt lat="50.37708" lon="4.24357">
        <ele>201</ele>
        <time>1970-01-01T00:03:06.000Z</time>
      </trkpt>
      <trkpt lat="50.377" lon="4.246">
        <ele>199</ele>
        <time>1970-01-01T00:03:07.000Z</time>
      </trkpt>
      <trkpt lat="50.37799" lon="4.25089">
        <ele>217</ele>
        <time>1970-01-01T00:03:08.000Z</time>
      </trkpt>
      <trkpt lat="50.37901" lon="4.25474">
        <ele>217</ele>
        <time>1970-01-01T00:03:09.000Z</time>
      </trkpt>
      <trkpt lat="50.37892" lon="4.26727">
        <ele>204</ele>
        <time>1970-01-01T00:03:10.000Z</time>
      </trkpt>
      <trkpt lat="50.37811" lon="4.26748">
        <ele>204</ele>
        <time>1970-01-01T00:03:11.000Z</time>
      </trkpt>
      <trkpt lat="50.37611" lon="4.26741">
        <ele>204</ele>
        <time>1970-01-01T00:03:12.000Z</time>
      </trkpt>
      <trkpt lat="50.37566" lon="4.26748">
        <ele>202</ele>
        <time>1970-01-01T00:03:13.000Z</time>
      </trkpt>
      <trkpt lat="50.37548" lon="4.26755">
        <ele>201</ele>
        <time>1970-01-01T00:03:14.000Z</time>
      </trkpt>
      <trkpt lat="50.37093" lon="4.27054">
        <ele>194</ele>
        <time>1970-01-01T00:03:15.000Z</time>
      </trkpt>
      <trkpt lat="50.37044" lon="4.27333">
        <ele>195</ele>
        <time>1970-01-01T00:03:16.000Z</time>
      </trkpt>
      <trkpt lat="50.37041" lon="4.27487">
        <ele>194</ele>
        <time>1970-01-01T00:03:17.000Z</time>
      </trkpt>
      <trkpt lat="50.3698" lon="4.27499">
        <ele>194</ele>
        <time>1970-01-01T00:03:18.000Z</time>
      </trkpt>
      <trkpt lat="50.36953" lon="4.27717">
        <ele>191</ele>
        <time>1970-01-01T00:03:19.000Z</time>
      </trkpt>
      <trkpt lat="50.36964" lon="4.27717">
        <ele>191</ele>
        <time>1970-01-01T00:03:20.000Z</time>
      </trkpt>
      <trkpt lat="50.36943" lon="4.27838">
        <ele>191</ele>
        <time>1970-01-01T00:03:21.000Z</time>
      </trkpt>
      <trkpt lat="50.36951" lon="4.27842">
        <ele>191</ele>
        <time>1970-01-01T00:03:22.000Z</time>
      </trkpt>
      <trkpt lat="50.36948" lon="4.28265">
        <ele>185</ele>
        <time>1970-01-01T00:03:23.000Z</time>
      </trkpt>
      <trkpt lat="50.36945" lon="4.28508">
        <ele>174</ele>
        <time>1970-01-01T00:03:24.000Z</time>
      </trkpt>
      <trkpt lat="50.36945" lon="4.28541">
        <ele>174</ele>
        <time>1970-01-01T00:03:25.000Z</time>
      </trkpt>
      <trkpt lat="50.3698" lon="4.28587">
        <ele>174</ele>
        <time>1970-01-01T00:03:26.000Z</time>
      </trkpt>
      <trkpt lat="50.36959" lon="4.28734">
        <ele>172</ele>
        <time>1970-01-01T00:03:27.000Z</time>
      </trkpt>
      <trkpt lat="50.36843" lon="4.29077">
        <ele>158</ele>
        <time>1970-01-01T00:03:28.000Z</time>
      </trkpt>
      <trkpt lat="50.36838" lon="4.29173">
        <ele>155</ele>
        <time>1970-01-01T00:03:29.000Z</time>
      </trkpt>
      <trkpt lat="50.36704" lon="4.29395">
        <ele>154</ele>
        <time>1970-01-01T00:03:30.000Z</time>
      </trkpt>
      <trkpt lat="50.36683" lon="4.2947">
        <ele>150</ele>
        <time>1970-01-01T00:03:31.000Z</time>
      </trkpt>
      <trkpt lat="50.36654" lon="4.29784">
        <ele>150</ele>
        <time>1970-01-01T00:03:32.000Z</time>
      </trkpt>
      <trkpt lat="50.36662" lon="4.29797">
        <ele>150</ele>
        <time>1970-01-01T00:03:33.000Z</time>
      </trkpt>
      <trkpt lat="50.36675" lon="4.29843">
        <ele>146</ele>
        <time>1970-01-01T00:03:34.000Z</time>
      </trkpt>
      <trkpt lat="50.36758" lon="4.29943">
        <ele>139</ele>
        <time>1970-01-01T00:03:35.000Z</time>
      </trkpt>
      <trkpt lat="50.3683" lon="4.30215">
        <ele>124</ele>
        <time>1970-01-01T00:03:36.000Z</time>
      </trkpt>
      <trkpt lat="50.36843" lon="4.30228">
        <ele>124</ele>
        <time>1970-01-01T00:03:37.000Z</time>
      </trkpt>
      <trkpt lat="50.36894" lon="4.30207">
        <ele>128</ele>
        <time>1970-01-01T00:03:38.000Z</time>
      </trkpt>
      <trkpt lat="50.36902" lon="4.30223">
        <ele>127</ele>
        <time>1970-01-01T00:03:39.000Z</time>
      </trkpt>
      <trkpt lat="50.36897" lon="4.30265">
        <ele>123</ele>
        <time>1970-01-01T00:03:40.000Z</time>
      </trkpt>
      <trkpt lat="50.36908" lon="4.3032">
        <ele>120</ele>
        <time>1970-01-01T00:03:41.000Z</time>
      </trkpt>
      <trkpt lat="50.36953" lon="4.30403">
        <ele>119</ele>
        <time>1970-01-01T00:03:42.000Z</time>
      </trkpt>
      <trkpt lat="50.36956" lon="4.3042">
        <ele>115</ele>
        <time>1970-01-01T00:03:43.000Z</time>
      </trkpt>
      <trkpt lat="50.36983" lon="4.30448">
        <ele>115</ele>
        <time>1970-01-01T00:03:44.000Z</time>
      </trkpt>
      <trkpt lat="50.37063" lon="4.30553">
        <ele>114</ele>
        <time>1970-01-01T00:03:45.000Z</time>
      </trkpt>
      <trkpt lat="50.37161" lon="4.30657">
        <ele>120</ele>
        <time>1970-01-01T00:03:46.000Z</time>
      </trkpt>
      <trkpt lat="50.37183" lon="4.30692">
        <ele>132</ele>
        <time>1970-01-01T00:03:47.000Z</time>
      </trkpt>
      <trkpt lat="50.37201" lon="4.30783">
        <ele>134</ele>
        <time>1970-01-01T00:03:48.000Z</time>
      </trkpt>
      <trkpt lat="50.37197" lon="4.30964">
        <ele>132</ele>
        <time>1970-01-01T00:03:49.000Z</time>
      </trkpt>
      <trkpt lat="50.37165" lon="4.31208">
        <ele>120</ele>
        <time>1970-01-01T00:03:50.000Z</time>
      </trkpt>
      <trkpt lat="50.37103" lon="4.31382">
        <ele>116</ele>
        <time>1970-01-01T00:03:51.000Z</time>
      </trkpt>
      <trkpt lat="50.37099" lon="4.31438">
        <ele>113</ele>
        <time>1970-01-01T00:03:52.000Z</time>
      </trkpt>
      <trkpt lat="50.37107" lon="4.31501">
        <ele>111</ele>
        <time>1970-01-01T00:03:53.000Z</time>
      </trkpt>
      <trkpt lat="50.37143" lon="4.31668">
        <ele>111</ele>
        <time>1970-01-01T00:03:54.000Z</time>
      </trkpt>
      <trkpt lat="50.3721" lon="4.31864">
        <ele>114</ele>
        <time>1970-01-01T00:03:55.000Z</time>
      </trkpt>
      <trkpt lat="50.37317" lon="4.3224">
        <ele>116</ele>
        <time>1970-01-01T00:03:56.000Z</time>
      </trkpt>
      <trkpt lat="50.37411" lon="4.32401">
        <ele>115</ele>
        <time>1970-01-01T00:03:57.000Z</time>
      </trkpt>
      <trkpt lat="50.3746" lon="4.32533">
        <ele>125</ele>
        <time>1970-01-01T00:03:58.000Z</time>
      </trkpt>
      <trkpt lat="50.37469" lon="4.32624">
        <ele>128</ele>
        <time>1970-01-01T00:03:59.000Z</time>
      </trkpt>
      <trkpt lat="50.3746" lon="4.32687">
        <ele>132</ele>
        <time>1970-01-01T00:04:00.000Z</time>
      </trkpt>
      <trkpt lat="50.37438" lon="4.32742">
        <ele>132</ele>
        <time>1970-01-01T00:04:01.000Z</time>
      </trkpt>
      <trkpt lat="50.37407" lon="4.32791">
        <ele>131</ele>
        <time>1970-01-01T00:04:02.000Z</time>
      </trkpt>
      <trkpt lat="50.37165" lon="4.32938">
        <ele>120</ele>
        <time>1970-01-01T00:04:03.000Z</time>
      </trkpt>
      <trkpt lat="50.37005" lon="4.33133">
        <ele>130</ele>
        <time>1970-01-01T00:04:04.000Z</time>
      </trkpt>
      <trkpt lat="50.36769" lon="4.33278">
        <ele>114</ele>
        <time>1970-01-01T00:04:05.000Z</time>
      </trkpt>
      <trkpt lat="50.36755" lon="4.33292">
        <ele>114</ele>
        <time>1970-01-01T00:04:06.000Z</time>
      </trkpt>
      <trkpt lat="50.36732" lon="4.33332">
        <ele>111</ele>
        <time>1970-01-01T00:04:07.000Z</time>
      </trkpt>
      <trkpt lat="50.36728" lon="4.33345">
        <ele>110</ele>
        <time>1970-01-01T00:04:08.000Z</time>
      </trkpt>
      <trkpt lat="50.36723" lon="4.33371">
        <ele>110</ele>
        <time>1970-01-01T00:04:09.000Z</time>
      </trkpt>
      <trkpt lat="50.36723" lon="4.33401">
        <ele>110</ele>
        <time>1970-01-01T00:04:10.000Z</time>
      </trkpt>
      <trkpt lat="50.36734" lon="4.33475">
        <ele>109</ele>
        <time>1970-01-01T00:04:11.000Z</time>
      </trkpt>
      <trkpt lat="50.36734" lon="4.33504">
        <ele>109</ele>
        <time>1970-01-01T00:04:12.000Z</time>
      </trkpt>
      <trkpt lat="50.36736" lon="4.33551">
        <ele>109</ele>
        <time>1970-01-01T00:04:13.000Z</time>
      </trkpt>
      <trkpt lat="50.36726" lon="4.33554">
        <ele>109</ele>
        <time>1970-01-01T00:04:14.000Z</time>
      </trkpt>
      <trkpt lat="50.36719" lon="4.33554">
        <ele>110</ele>
        <time>1970-01-01T00:04:15.000Z</time>
      </trkpt>
      <trkpt lat="50.36715" lon="4.3355">
        <ele>110</ele>
        <time>1970-01-01T00:04:16.000Z</time>
      </trkpt>
      <trkpt lat="50.36712" lon="4.33546">
        <ele>110</ele>
        <time>1970-01-01T00:04:17.000Z</time>
      </trkpt>
      <trkpt lat="50.36711" lon="4.33539">
        <ele>110</ele>
        <time>1970-01-01T00:04:18.000Z</time>
      </trkpt>
      <trkpt lat="50.36702" lon="4.33408">
        <ele>110</ele>
        <time>1970-01-01T00:04:19.000Z</time>
      </trkpt>
      <trkpt lat="50.36697" lon="4.33339">
        <ele>110</ele>
        <time>1970-01-01T00:04:20.000Z</time>
      </trkpt>
      <trkpt lat="50.36695" lon="4.33328">
        <ele>111</ele>
        <time>1970-01-01T00:04:21.000Z</time>
      </trkpt>
      <trkpt lat="50.36694" lon="4.3332">
        <ele>111</ele>
        <time>1970-01-01T00:04:22.000Z</time>
      </trkpt>
      <trkpt lat="50.36674" lon="4.33271">
        <ele>111</ele>
        <time>1970-01-01T00:04:23.000Z</time>
      </trkpt>
      <trkpt lat="50.36665" lon="4.33247">
        <ele>112</ele>
        <time>1970-01-01T00:04:24.000Z</time>
      </trkpt>
      <trkpt lat="50.36663" lon="4.33244">
        <ele>112</ele>
        <time>1970-01-01T00:04:25.000Z</time>
      </trkpt>
      <trkpt lat="50.36657" lon="4.33239">
        <ele>113</ele>
        <time>1970-01-01T00:04:26.000Z</time>
      </trkpt>
      <trkpt lat="50.36646" lon="4.33244">
        <ele>113</ele>
        <time>1970-01-01T00:04:27.000Z</time>
      </trkpt>
      <trkpt lat="50.36625" lon="4.33327">
        <ele>112</ele>
        <time>1970-01-01T00:04:28.000Z</time>
      </trkpt>
      <trkpt lat="50.36622" lon="4.33331">
        <ele>113</ele>
        <time>1970-01-01T00:04:29.000Z</time>
      </trkpt>
      <trkpt lat="50.36618" lon="4.33335">
        <ele>112</ele>
        <time>1970-01-01T00:04:30.000Z</time>
      </trkpt>
      <trkpt lat="50.36612" lon="4.33335">
        <ele>112</ele>
        <time>1970-01-01T00:04:31.000Z</time>
      </trkpt>
      <trkpt lat="50.36582" lon="4.3332">
        <ele>116</ele>
        <time>1970-01-01T00:04:32.000Z</time>
      </trkpt>
      <trkpt lat="50.36442" lon="4.33253">
        <ele>122</ele>
        <time>1970-01-01T00:04:33.000Z</time>
      </trkpt>
      <trkpt lat="50.36428" lon="4.33231">
        <ele>119</ele>
        <time>1970-01-01T00:04:34.000Z</time>
      </trkpt>
      <trkpt lat="50.36424" lon="4.33228">
        <ele>119</ele>
        <time>1970-01-01T00:04:35.000Z</time>
      </trkpt>
      <trkpt lat="50.36449" lon="4.33175">
        <ele>117</ele>
        <time>1970-01-01T00:04:36.000Z</time>
      </trkpt>
      <trkpt lat="50.36478" lon="4.33133">
        <ele>118</ele>
        <time>1970-01-01T00:04:37.000Z</time>
      </trkpt>
      <trkpt lat="50.36481" lon="4.33125">
        <ele>118</ele>
        <time>1970-01-01T00:04:38.000Z</time>
      </trkpt>
      <trkpt lat="50.36483" lon="4.33116">
        <ele>118</ele>
        <time>1970-01-01T00:04:39.000Z</time>
      </trkpt>
      <trkpt lat="50.36488" lon="4.33097">
        <ele>119</ele>
        <time>1970-01-01T00:04:40.000Z</time>
      </trkpt>
      <trkpt lat="50.36503" lon="4.33027">
        <ele>122</ele>
        <time>1970-01-01T00:04:41.000Z</time>
      </trkpt>
      <trkpt lat="50.36521" lon="4.32949">
        <ele>129</ele>
        <time>1970-01-01T00:04:42.000Z</time>
      </trkpt>
      <trkpt lat="50.36524" lon="4.32943">
        <ele>130</ele>
        <time>1970-01-01T00:04:43.000Z</time>
      </trkpt>
      <trkpt lat="50.36535" lon="4.32932">
        <ele>130</ele>
        <time>1970-01-01T00:04:44.000Z</time>
      </trkpt>
      <trkpt lat="50.36588" lon="4.32893">
        <ele>133</ele>
        <time>1970-01-01T00:04:45.000Z</time>
      </trkpt>
      <trkpt lat="50.36779" lon="4.32703">
        <ele>136</ele>
        <time>1970-01-01T00:04:46.000Z</time>
      </trkpt>
      <trkpt lat="50.36876" lon="4.32606">
        <ele>132</ele>
        <time>1970-01-01T00:04:47.000Z</time>
      </trkpt>
      <trkpt lat="50.36892" lon="4.32586">
        <ele>131</ele>
        <time>1970-01-01T00:04:48.000Z</time>
      </trkpt>
      <trkpt lat="50.36917" lon="4.32542">
        <ele>130</ele>
        <time>1970-01-01T00:04:49.000Z</time>
      </trkpt>
      <trkpt lat="50.36927" lon="4.32516">
        <ele>132</ele>
        <time>1970-01-01T00:04:50.000Z</time>
      </trkpt>
      <trkpt lat="50.36936" lon="4.32491">
        <ele>134</ele>
        <time>1970-01-01T00:04:51.000Z</time>
      </trkpt>
      <trkpt lat="50.36949" lon="4.32447">
        <ele>134</ele>
        <time>1970-01-01T00:04:52.000Z</time>
      </trkpt>
      <trkpt lat="50.3697" lon="4.32357">
        <ele>136</ele>
        <time>1970-01-01T00:04:53.000Z</time>
      </trkpt>
      <trkpt lat="50.36988" lon="4.32276">
        <ele>137</ele>
        <time>1970-01-01T00:04:54.000Z</time>
      </trkpt>
      <trkpt lat="50.37004" lon="4.32176">
        <ele>135</ele>
        <time>1970-01-01T00:04:55.000Z</time>
      </trkpt>
      <trkpt lat="50.3704" lon="4.31914">
        <ele>134</ele>
        <time>1970-01-01T00:04:56.000Z</time>
      </trkpt>
      <trkpt lat="50.37043" lon="4.31866">
        <ele>134</ele>
        <time>1970-01-01T00:04:57.000Z</time>
      </trkpt>
      <trkpt lat="50.37043" lon="4.31852">
        <ele>134</ele>
        <time>1970-01-01T00:04:58.000Z</time>
      </trkpt>
      <trkpt lat="50.37041" lon="4.31822">
        <ele>132</ele>
        <time>1970-01-01T00:04:59.000Z</time>
      </trkpt>
      <trkpt lat="50.37033" lon="4.31783">
        <ele>132</ele>
        <time>1970-01-01T00:05:00.000Z</time>
      </trkpt>
      <trkpt lat="50.3704" lon="4.31758">
        <ele>131</ele>
        <time>1970-01-01T00:05:01.000Z</time>
      </trkpt>
      <trkpt lat="50.3704" lon="4.31746">
        <ele>129</ele>
        <time>1970-01-01T00:05:02.000Z</time>
      </trkpt>
      <trkpt lat="50.36949" lon="4.3156">
        <ele>137</ele>
        <time>1970-01-01T00:05:03.000Z</time>
      </trkpt>
      <trkpt lat="50.3694" lon="4.31546">
        <ele>137</ele>
        <time>1970-01-01T00:05:04.000Z</time>
      </trkpt>
      <trkpt lat="50.36919" lon="4.31417">
        <ele>136</ele>
        <time>1970-01-01T00:05:05.000Z</time>
      </trkpt>
      <trkpt lat="50.36895" lon="4.31328">
        <ele>131</ele>
        <time>1970-01-01T00:05:06.000Z</time>
      </trkpt>
      <trkpt lat="50.36888" lon="4.313">
        <ele>131</ele>
        <time>1970-01-01T00:05:07.000Z</time>
      </trkpt>
      <trkpt lat="50.36881" lon="4.31236">
        <ele>129</ele>
        <time>1970-01-01T00:05:08.000Z</time>
      </trkpt>
      <trkpt lat="50.36874" lon="4.31203">
        <ele>128</ele>
        <time>1970-01-01T00:05:09.000Z</time>
      </trkpt>
      <trkpt lat="50.36854" lon="4.31166">
        <ele>128</ele>
        <time>1970-01-01T00:05:10.000Z</time>
      </trkpt>
      <trkpt lat="50.36817" lon="4.31105">
        <ele>130</ele>
        <time>1970-01-01T00:05:11.000Z</time>
      </trkpt>
      <trkpt lat="50.36835" lon="4.31046">
        <ele>128</ele>
        <time>1970-01-01T00:05:12.000Z</time>
      </trkpt>
      <trkpt lat="50.3676" lon="4.30963">
        <ele>127</ele>
        <time>1970-01-01T00:05:13.000Z</time>
      </trkpt>
      <trkpt lat="50.36744" lon="4.30946">
        <ele>126</ele>
        <time>1970-01-01T00:05:14.000Z</time>
      </trkpt>
      <trkpt lat="50.36715" lon="4.30921">
        <ele>125</ele>
        <time>1970-01-01T00:05:15.000Z</time>
      </trkpt>
      <trkpt lat="50.36701" lon="4.3091">
        <ele>122</ele>
        <time>1970-01-01T00:05:16.000Z</time>
      </trkpt>
      <trkpt lat="50.36681" lon="4.30904">
        <ele>121</ele>
        <time>1970-01-01T00:05:17.000Z</time>
      </trkpt>
      <trkpt lat="50.36619" lon="4.30871">
        <ele>117</ele>
        <time>1970-01-01T00:05:18.000Z</time>
      </trkpt>
      <trkpt lat="50.36572" lon="4.30836">
        <ele>115</ele>
        <time>1970-01-01T00:05:19.000Z</time>
      </trkpt>
      <trkpt lat="50.36565" lon="4.30836">
        <ele>115</ele>
        <time>1970-01-01T00:05:20.000Z</time>
      </trkpt>
      <trkpt lat="50.36544" lon="4.30836">
        <ele>116</ele>
        <time>1970-01-01T00:05:21.000Z</time>
      </trkpt>
      <trkpt lat="50.36501" lon="4.30836">
        <ele>118</ele>
        <time>1970-01-01T00:05:22.000Z</time>
      </trkpt>
      <trkpt lat="50.36472" lon="4.30838">
        <ele>118</ele>
        <time>1970-01-01T00:05:23.000Z</time>
      </trkpt>
      <trkpt lat="50.36448" lon="4.30841">
        <ele>119</ele>
        <time>1970-01-01T00:05:24.000Z</time>
      </trkpt>
      <trkpt lat="50.3639" lon="4.30852">
        <ele>122</ele>
        <time>1970-01-01T00:05:25.000Z</time>
      </trkpt>
      <trkpt lat="50.36332" lon="4.30872">
        <ele>125</ele>
        <time>1970-01-01T00:05:26.000Z</time>
      </trkpt>
      <trkpt lat="50.3631" lon="4.3088">
        <ele>124</ele>
        <time>1970-01-01T00:05:27.000Z</time>
      </trkpt>
      <trkpt lat="50.3628" lon="4.309">
        <ele>125</ele>
        <time>1970-01-01T00:05:28.000Z</time>
      </trkpt>
      <trkpt lat="50.36276" lon="4.309">
        <ele>125</ele>
        <time>1970-01-01T00:05:29.000Z</time>
      </trkpt>
      <trkpt lat="50.36269" lon="4.309">
        <ele>125</ele>
        <time>1970-01-01T00:05:30.000Z</time>
      </trkpt>
      <trkpt lat="50.36262" lon="4.3088">
        <ele>125</ele>
        <time>1970-01-01T00:05:31.000Z</time>
      </trkpt>
      <trkpt lat="50.3625" lon="4.30866">
        <ele>126</ele>
        <time>1970-01-01T00:05:32.000Z</time>
      </trkpt>
      <trkpt lat="50.36216" lon="4.30808">
        <ele>130</ele>
        <time>1970-01-01T00:05:33.000Z</time>
      </trkpt>
      <trkpt lat="50.36183" lon="4.30752">
        <ele>133</ele>
        <time>1970-01-01T00:05:34.000Z</time>
      </trkpt>
      <trkpt lat="50.36076" lon="4.30819">
        <ele>141</ele>
        <time>1970-01-01T00:05:35.000Z</time>
      </trkpt>
      <trkpt lat="50.36" lon="4.30875">
        <ele>143</ele>
        <time>1970-01-01T00:05:36.000Z</time>
      </trkpt>
      <trkpt lat="50.35953" lon="4.30903">
        <ele>143</ele>
        <time>1970-01-01T00:05:37.000Z</time>
      </trkpt>
      <trkpt lat="50.35903" lon="4.30925">
        <ele>144</ele>
        <time>1970-01-01T00:05:38.000Z</time>
      </trkpt>
      <trkpt lat="50.35876" lon="4.30939">
        <ele>144</ele>
        <time>1970-01-01T00:05:39.000Z</time>
      </trkpt>
      <trkpt lat="50.35844" lon="4.3097">
        <ele>143</ele>
        <time>1970-01-01T00:05:40.000Z</time>
      </trkpt>
      <trkpt lat="50.35817" lon="4.30981">
        <ele>142</ele>
        <time>1970-01-01T00:05:41.000Z</time>
      </trkpt>
      <trkpt lat="50.35743" lon="4.30964">
        <ele>140</ele>
        <time>1970-01-01T00:05:42.000Z</time>
      </trkpt>
      <trkpt lat="50.35709" lon="4.3095">
        <ele>140</ele>
        <time>1970-01-01T00:05:43.000Z</time>
      </trkpt>
      <trkpt lat="50.35529" lon="4.30825">
        <ele>165</ele>
        <time>1970-01-01T00:05:44.000Z</time>
      </trkpt>
      <trkpt lat="50.35455" lon="4.30744">
        <ele>173</ele>
        <time>1970-01-01T00:05:45.000Z</time>
      </trkpt>
      <trkpt lat="50.35439" lon="4.30663">
        <ele>184</ele>
        <time>1970-01-01T00:05:46.000Z</time>
      </trkpt>
      <trkpt lat="50.35414" lon="4.30629">
        <ele>183</ele>
        <time>1970-01-01T00:05:47.000Z</time>
      </trkpt>
      <trkpt lat="50.35357" lon="4.30518">
        <ele>188</ele>
        <time>1970-01-01T00:05:48.000Z</time>
      </trkpt>
      <trkpt lat="50.35309" lon="4.30495">
        <ele>191</ele>
        <time>1970-01-01T00:05:49.000Z</time>
      </trkpt>
      <trkpt lat="50.35259" lon="4.30437">
        <ele>193</ele>
        <time>1970-01-01T00:05:50.000Z</time>
      </trkpt>
      <trkpt lat="50.35207" lon="4.30347">
        <ele>196</ele>
        <time>1970-01-01T00:05:51.000Z</time>
      </trkpt>
      <trkpt lat="50.35177" lon="4.30342">
        <ele>196</ele>
        <time>1970-01-01T00:05:52.000Z</time>
      </trkpt>
      <trkpt lat="50.35157" lon="4.30322">
        <ele>196</ele>
        <time>1970-01-01T00:05:53.000Z</time>
      </trkpt>
      <trkpt lat="50.35136" lon="4.30236">
        <ele>199</ele>
        <time>1970-01-01T00:05:54.000Z</time>
      </trkpt>
      <trkpt lat="50.35084" lon="4.30189">
        <ele>199</ele>
        <time>1970-01-01T00:05:55.000Z</time>
      </trkpt>
      <trkpt lat="50.35041" lon="4.3013">
        <ele>199</ele>
        <time>1970-01-01T00:05:56.000Z</time>
      </trkpt>
      <trkpt lat="50.35011" lon="4.30077">
        <ele>198</ele>
        <time>1970-01-01T00:05:57.000Z</time>
      </trkpt>
      <trkpt lat="50.34979" lon="4.29975">
        <ele>189</ele>
        <time>1970-01-01T00:05:58.000Z</time>
      </trkpt>
      <trkpt lat="50.34904" lon="4.30084">
        <ele>182</ele>
        <time>1970-01-01T00:05:59.000Z</time>
      </trkpt>
      <trkpt lat="50.34877" lon="4.30151">
        <ele>180</ele>
        <time>1970-01-01T00:06:00.000Z</time>
      </trkpt>
      <trkpt lat="50.34842" lon="4.3018">
        <ele>179</ele>
        <time>1970-01-01T00:06:01.000Z</time>
      </trkpt>
      <trkpt lat="50.34821" lon="4.3018">
        <ele>171</ele>
        <time>1970-01-01T00:06:02.000Z</time>
      </trkpt>
      <trkpt lat="50.34748" lon="4.30147">
        <ele>150</ele>
        <time>1970-01-01T00:06:03.000Z</time>
      </trkpt>
      <trkpt lat="50.34708" lon="4.30189">
        <ele>149</ele>
        <time>1970-01-01T00:06:04.000Z</time>
      </trkpt>
      <trkpt lat="50.34676" lon="4.30205">
        <ele>146</ele>
        <time>1970-01-01T00:06:05.000Z</time>
      </trkpt>
      <trkpt lat="50.34649" lon="4.30189">
        <ele>136</ele>
        <time>1970-01-01T00:06:06.000Z</time>
      </trkpt>
      <trkpt lat="50.34644" lon="4.30155">
        <ele>132</ele>
        <time>1970-01-01T00:06:07.000Z</time>
      </trkpt>
      <trkpt lat="50.34623" lon="4.30147">
        <ele>130</ele>
        <time>1970-01-01T00:06:08.000Z</time>
      </trkpt>
      <trkpt lat="50.34625" lon="4.3013">
        <ele>129</ele>
        <time>1970-01-01T00:06:09.000Z</time>
      </trkpt>
      <trkpt lat="50.34596" lon="4.29921">
        <ele>127</ele>
        <time>1970-01-01T00:06:10.000Z</time>
      </trkpt>
      <trkpt lat="50.34558" lon="4.29933">
        <ele>133</ele>
        <time>1970-01-01T00:06:11.000Z</time>
      </trkpt>
      <trkpt lat="50.34556" lon="4.29908">
        <ele>137</ele>
        <time>1970-01-01T00:06:12.000Z</time>
      </trkpt>
      <trkpt lat="50.34572" lon="4.2977">
        <ele>140</ele>
        <time>1970-01-01T00:06:13.000Z</time>
      </trkpt>
      <trkpt lat="50.34537" lon="4.2964">
        <ele>137</ele>
        <time>1970-01-01T00:06:14.000Z</time>
      </trkpt>
      <trkpt lat="50.34523" lon="4.29632">
        <ele>138</ele>
        <time>1970-01-01T00:06:15.000Z</time>
      </trkpt>
      <trkpt lat="50.34523" lon="4.29628">
        <ele>137</ele>
        <time>1970-01-01T00:06:16.000Z</time>
      </trkpt>
      <trkpt lat="50.34502" lon="4.2954">
        <ele>125</ele>
        <time>1970-01-01T00:06:17.000Z</time>
      </trkpt>
      <trkpt lat="50.34422" lon="4.29511">
        <ele>133</ele>
        <time>1970-01-01T00:06:18.000Z</time>
      </trkpt>
      <trkpt lat="50.34277" lon="4.29419">
        <ele>138</ele>
        <time>1970-01-01T00:06:19.000Z</time>
      </trkpt>
      <trkpt lat="50.3425" lon="4.29423">
        <ele>137</ele>
        <time>1970-01-01T00:06:20.000Z</time>
      </trkpt>
      <trkpt lat="50.342" lon="4.29335">
        <ele>138</ele>
        <time>1970-01-01T00:06:21.000Z</time>
      </trkpt>
      <trkpt lat="50.34159" lon="4.29242">
        <ele>132</ele>
        <time>1970-01-01T00:06:22.000Z</time>
      </trkpt>
      <trkpt lat="50.34155" lon="4.29232">
        <ele>134</ele>
        <time>1970-01-01T00:06:23.000Z</time>
      </trkpt>
      <trkpt lat="50.3417" lon="4.29219">
        <ele>122</ele>
        <time>1970-01-01T00:06:24.000Z</time>
      </trkpt>
      <trkpt lat="50.34148" lon="4.29157">
        <ele>124</ele>
        <time>1970-01-01T00:06:25.000Z</time>
      </trkpt>
      <trkpt lat="50.34142" lon="4.29121">
        <ele>126</ele>
        <time>1970-01-01T00:06:26.000Z</time>
      </trkpt>
      <trkpt lat="50.34139" lon="4.29028">
        <ele>120</ele>
        <time>1970-01-01T00:06:27.000Z</time>
      </trkpt>
      <trkpt lat="50.34138" lon="4.28971">
        <ele>118</ele>
        <time>1970-01-01T00:06:28.000Z</time>
      </trkpt>
      <trkpt lat="50.34136" lon="4.28969">
        <ele>118</ele>
        <time>1970-01-01T00:06:29.000Z</time>
      </trkpt>
      <trkpt lat="50.34131" lon="4.28967">
        <ele>118</ele>
        <time>1970-01-01T00:06:30.000Z</time>
      </trkpt>
      <trkpt lat="50.34124" lon="4.28966">
        <ele>119</ele>
        <time>1970-01-01T00:06:31.000Z</time>
      </trkpt>
      <trkpt lat="50.34105" lon="4.28973">
        <ele>120</ele>
        <time>1970-01-01T00:06:32.000Z</time>
      </trkpt>
      <trkpt lat="50.34088" lon="4.28973">
        <ele>120</ele>
        <time>1970-01-01T00:06:33.000Z</time>
      </trkpt>
      <trkpt lat="50.34077" lon="4.28966">
        <ele>134</ele>
        <time>1970-01-01T00:06:34.000Z</time>
      </trkpt>
      <trkpt lat="50.34071" lon="4.2896">
        <ele>135</ele>
        <time>1970-01-01T00:06:35.000Z</time>
      </trkpt>
      <trkpt lat="50.34067" lon="4.28953">
        <ele>136</ele>
        <time>1970-01-01T00:06:36.000Z</time>
      </trkpt>
      <trkpt lat="50.34063" lon="4.28942">
        <ele>135</ele>
        <time>1970-01-01T00:06:37.000Z</time>
      </trkpt>
      <trkpt lat="50.34052" lon="4.2894">
        <ele>138</ele>
        <time>1970-01-01T00:06:38.000Z</time>
      </trkpt>
      <trkpt lat="50.34019" lon="4.28855">
        <ele>143</ele>
        <time>1970-01-01T00:06:39.000Z</time>
      </trkpt>
      <trkpt lat="50.34011" lon="4.28838">
        <ele>148</ele>
        <time>1970-01-01T00:06:40.000Z</time>
      </trkpt>
      <trkpt lat="50.34003" lon="4.28792">
        <ele>142</ele>
        <time>1970-01-01T00:06:41.000Z</time>
      </trkpt>
      <trkpt lat="50.34002" lon="4.28791">
        <ele>142</ele>
        <time>1970-01-01T00:06:42.000Z</time>
      </trkpt>
      <trkpt lat="50.33987" lon="4.28792">
        <ele>156</ele>
        <time>1970-01-01T00:06:43.000Z</time>
      </trkpt>
      <trkpt lat="50.33987" lon="4.28771">
        <ele>155</ele>
        <time>1970-01-01T00:06:44.000Z</time>
      </trkpt>
      <trkpt lat="50.33989" lon="4.28765">
        <ele>155</ele>
        <time>1970-01-01T00:06:45.000Z</time>
      </trkpt>
      <trkpt lat="50.33988" lon="4.28745">
        <ele>153</ele>
        <time>1970-01-01T00:06:46.000Z</time>
      </trkpt>
      <trkpt lat="50.33989" lon="4.28683">
        <ele>153</ele>
        <time>1970-01-01T00:06:47.000Z</time>
      </trkpt>
      <trkpt lat="50.33974" lon="4.28679">
        <ele>154</ele>
        <time>1970-01-01T00:06:48.000Z</time>
      </trkpt>
      <trkpt lat="50.3396" lon="4.28675">
        <ele>156</ele>
        <time>1970-01-01T00:06:49.000Z</time>
      </trkpt>
      <trkpt lat="50.33954" lon="4.28672">
        <ele>156</ele>
        <time>1970-01-01T00:06:50.000Z</time>
      </trkpt>
      <trkpt lat="50.33955" lon="4.28653">
        <ele>155</ele>
        <time>1970-01-01T00:06:51.000Z</time>
      </trkpt>
      <trkpt lat="50.3396" lon="4.28629">
        <ele>155</ele>
        <time>1970-01-01T00:06:52.000Z</time>
      </trkpt>
      <trkpt lat="50.33923" lon="4.28608">
        <ele>156</ele>
        <time>1970-01-01T00:06:53.000Z</time>
      </trkpt>
      <trkpt lat="50.33914" lon="4.286">
        <ele>153</ele>
        <time>1970-01-01T00:06:54.000Z</time>
      </trkpt>
      <trkpt lat="50.33913" lon="4.28601">
        <ele>152</ele>
        <time>1970-01-01T00:06:55.000Z</time>
      </trkpt>
      <trkpt lat="50.33884" lon="4.28685">
        <ele>154</ele>
        <time>1970-01-01T00:06:56.000Z</time>
      </trkpt>
      <trkpt lat="50.33884" lon="4.28685">
        <ele>154</ele>
        <time>1970-01-01T00:06:57.000Z</time>
      </trkpt>
      <trkpt lat="50.33863" lon="4.28668">
        <ele>150</ele>
        <time>1970-01-01T00:06:58.000Z</time>
      </trkpt>
      <trkpt lat="50.33861" lon="4.28664">
        <ele>147</ele>
        <time>1970-01-01T00:06:59.000Z</time>
      </trkpt>
      <trkpt lat="50.33863" lon="4.28668">
        <ele>150</ele>
        <time>1970-01-01T00:07:00.000Z</time>
      </trkpt>
      <trkpt lat="50.33848" lon="4.28678">
        <ele>147</ele>
        <time>1970-01-01T00:07:01.000Z</time>
      </trkpt>
      <trkpt lat="50.33829" lon="4.28693">
        <ele>136</ele>
        <time>1970-01-01T00:07:02.000Z</time>
      </trkpt>
      <trkpt lat="50.33826" lon="4.28697">
        <ele>136</ele>
        <time>1970-01-01T00:07:03.000Z</time>
      </trkpt>
      <trkpt lat="50.33812" lon="4.28737">
        <ele>136</ele>
        <time>1970-01-01T00:07:04.000Z</time>
      </trkpt>
      <trkpt lat="50.33805" lon="4.28762">
        <ele>136</ele>
        <time>1970-01-01T00:07:05.000Z</time>
      </trkpt>
      <trkpt lat="50.33799" lon="4.28801">
        <ele>135</ele>
        <time>1970-01-01T00:07:06.000Z</time>
      </trkpt>
      <trkpt lat="50.33794" lon="4.28812">
        <ele>135</ele>
        <time>1970-01-01T00:07:07.000Z</time>
      </trkpt>
      <trkpt lat="50.33795" lon="4.28813">
        <ele>135</ele>
        <time>1970-01-01T00:07:08.000Z</time>
      </trkpt>
      <trkpt lat="50.33788" lon="4.28812">
        <ele>134</ele>
        <time>1970-01-01T00:07:09.000Z</time>
      </trkpt>
      <trkpt lat="50.33788" lon="4.28812">
        <ele>134</ele>
        <time>1970-01-01T00:07:10.000Z</time>
      </trkpt>
      <trkpt lat="50.33791" lon="4.28785">
        <ele>134</ele>
        <time>1970-01-01T00:07:11.000Z</time>
      </trkpt>
      <trkpt lat="50.33788" lon="4.28706">
        <ele>132</ele>
        <time>1970-01-01T00:07:12.000Z</time>
      </trkpt>
      <trkpt lat="50.33788" lon="4.28706">
        <ele>132</ele>
        <time>1970-01-01T00:07:13.000Z</time>
      </trkpt>
      <trkpt lat="50.33775" lon="4.28704">
        <ele>130</ele>
        <time>1970-01-01T00:07:14.000Z</time>
      </trkpt>
      <trkpt lat="50.33771" lon="4.28674">
        <ele>128</ele>
        <time>1970-01-01T00:07:15.000Z</time>
      </trkpt>
      <trkpt lat="50.33764" lon="4.28653">
        <ele>127</ele>
        <time>1970-01-01T00:07:16.000Z</time>
      </trkpt>
      <trkpt lat="50.33765" lon="4.28649">
        <ele>127</ele>
        <time>1970-01-01T00:07:17.000Z</time>
      </trkpt>
      <trkpt lat="50.33767" lon="4.28642">
        <ele>128</ele>
        <time>1970-01-01T00:07:18.000Z</time>
      </trkpt>
      <trkpt lat="50.33789" lon="4.28555">
        <ele>127</ele>
        <time>1970-01-01T00:07:19.000Z</time>
      </trkpt>
      <trkpt lat="50.33831" lon="4.28402">
        <ele>124</ele>
        <time>1970-01-01T00:07:20.000Z</time>
      </trkpt>
      <trkpt lat="50.33839" lon="4.28378">
        <ele>125</ele>
        <time>1970-01-01T00:07:21.000Z</time>
      </trkpt>
      <trkpt lat="50.33844" lon="4.28367">
        <ele>124</ele>
        <time>1970-01-01T00:07:22.000Z</time>
      </trkpt>
      <trkpt lat="50.33857" lon="4.2835">
        <ele>124</ele>
        <time>1970-01-01T00:07:23.000Z</time>
      </trkpt>
      <trkpt lat="50.33857" lon="4.28349">
        <ele>124</ele>
        <time>1970-01-01T00:07:24.000Z</time>
      </trkpt>
      <trkpt lat="50.33859" lon="4.28321">
        <ele>122</ele>
        <time>1970-01-01T00:07:25.000Z</time>
      </trkpt>
      <trkpt lat="50.33851" lon="4.28287">
        <ele>122</ele>
        <time>1970-01-01T00:07:26.000Z</time>
      </trkpt>
      <trkpt lat="50.33848" lon="4.2829">
        <ele>122</ele>
        <time>1970-01-01T00:07:27.000Z</time>
      </trkpt>
      <trkpt lat="50.3382" lon="4.28292">
        <ele>126</ele>
        <time>1970-01-01T00:07:28.000Z</time>
      </trkpt>
      <trkpt lat="50.33825" lon="4.28278">
        <ele>126</ele>
        <time>1970-01-01T00:07:29.000Z</time>
      </trkpt>
      <trkpt lat="50.33825" lon="4.28264">
        <ele>126</ele>
        <time>1970-01-01T00:07:30.000Z</time>
      </trkpt>
      <trkpt lat="50.33855" lon="4.28211">
        <ele>123</ele>
        <time>1970-01-01T00:07:31.000Z</time>
      </trkpt>
      <trkpt lat="50.33873" lon="4.28186">
        <ele>123</ele>
        <time>1970-01-01T00:07:32.000Z</time>
      </trkpt>
      <trkpt lat="50.33916" lon="4.28123">
        <ele>125</ele>
        <time>1970-01-01T00:07:33.000Z</time>
      </trkpt>
      <trkpt lat="50.33966" lon="4.28063">
        <ele>122</ele>
        <time>1970-01-01T00:07:34.000Z</time>
      </trkpt>
      <trkpt lat="50.34026" lon="4.28011">
        <ele>120</ele>
        <time>1970-01-01T00:07:35.000Z</time>
      </trkpt>
      <trkpt lat="50.34082" lon="4.27981">
        <ele>123</ele>
        <time>1970-01-01T00:07:36.000Z</time>
      </trkpt>
      <trkpt lat="50.34132" lon="4.27967">
        <ele>128</ele>
        <time>1970-01-01T00:07:37.000Z</time>
      </trkpt>
      <trkpt lat="50.34222" lon="4.27948">
        <ele>131</ele>
        <time>1970-01-01T00:07:38.000Z</time>
      </trkpt>
      <trkpt lat="50.34238" lon="4.27947">
        <ele>131</ele>
        <time>1970-01-01T00:07:39.000Z</time>
      </trkpt>
      <trkpt lat="50.3426" lon="4.27962">
        <ele>126</ele>
        <time>1970-01-01T00:07:40.000Z</time>
      </trkpt>
      <trkpt lat="50.34373" lon="4.27955">
        <ele>121</ele>
        <time>1970-01-01T00:07:41.000Z</time>
      </trkpt>
      <trkpt lat="50.34398" lon="4.27955">
        <ele>121</ele>
        <time>1970-01-01T00:07:42.000Z</time>
      </trkpt>
      <trkpt lat="50.34402" lon="4.27958">
        <ele>121</ele>
        <time>1970-01-01T00:07:43.000Z</time>
      </trkpt>
      <trkpt lat="50.34423" lon="4.27968">
        <ele>120</ele>
        <time>1970-01-01T00:07:44.000Z</time>
      </trkpt>
      <trkpt lat="50.34427" lon="4.27968">
        <ele>120</ele>
        <time>1970-01-01T00:07:45.000Z</time>
      </trkpt>
      <trkpt lat="50.34431" lon="4.27967">
        <ele>120</ele>
        <time>1970-01-01T00:07:46.000Z</time>
      </trkpt>
      <trkpt lat="50.3444" lon="4.27953">
        <ele>120</ele>
        <time>1970-01-01T00:07:47.000Z</time>
      </trkpt>
      <trkpt lat="50.34442" lon="4.27947">
        <ele>120</ele>
        <time>1970-01-01T00:07:48.000Z</time>
      </trkpt>
      <trkpt lat="50.34445" lon="4.27928">
        <ele>120</ele>
        <time>1970-01-01T00:07:49.000Z</time>
      </trkpt>
      <trkpt lat="50.34451" lon="4.27865">
        <ele>123</ele>
        <time>1970-01-01T00:07:50.000Z</time>
      </trkpt>
      <trkpt lat="50.34457" lon="4.27824">
        <ele>125</ele>
        <time>1970-01-01T00:07:51.000Z</time>
      </trkpt>
      <trkpt lat="50.3448" lon="4.27752">
        <ele>126</ele>
        <time>1970-01-01T00:07:52.000Z</time>
      </trkpt>
      <trkpt lat="50.34494" lon="4.27707">
        <ele>128</ele>
        <time>1970-01-01T00:07:53.000Z</time>
      </trkpt>
      <trkpt lat="50.34511" lon="4.27625">
        <ele>126</ele>
        <time>1970-01-01T00:07:54.000Z</time>
      </trkpt>
      <trkpt lat="50.34521" lon="4.2753">
        <ele>126</ele>
        <time>1970-01-01T00:07:55.000Z</time>
      </trkpt>
      <trkpt lat="50.34521" lon="4.27437">
        <ele>123</ele>
        <time>1970-01-01T00:07:56.000Z</time>
      </trkpt>
      <trkpt lat="50.34516" lon="4.27392">
        <ele>119</ele>
        <time>1970-01-01T00:07:57.000Z</time>
      </trkpt>
      <trkpt lat="50.3451" lon="4.27246">
        <ele>119</ele>
        <time>1970-01-01T00:07:58.000Z</time>
      </trkpt>
      <trkpt lat="50.34506" lon="4.27226">
        <ele>120</ele>
        <time>1970-01-01T00:07:59.000Z</time>
      </trkpt>
      <trkpt lat="50.34505" lon="4.27209">
        <ele>120</ele>
        <time>1970-01-01T00:08:00.000Z</time>
      </trkpt>
      <trkpt lat="50.34488" lon="4.2699">
        <ele>128</ele>
        <time>1970-01-01T00:08:01.000Z</time>
      </trkpt>
      <trkpt lat="50.34489" lon="4.26989">
        <ele>128</ele>
        <time>1970-01-01T00:08:02.000Z</time>
      </trkpt>
      <trkpt lat="50.34561" lon="4.26967">
        <ele>135</ele>
        <time>1970-01-01T00:08:03.000Z</time>
      </trkpt>
      <trkpt lat="50.34563" lon="4.26964">
        <ele>135</ele>
        <time>1970-01-01T00:08:04.000Z</time>
      </trkpt>
      <trkpt lat="50.34563" lon="4.26955">
        <ele>135</ele>
        <time>1970-01-01T00:08:05.000Z</time>
      </trkpt>
      <trkpt lat="50.34567" lon="4.26954">
        <ele>135</ele>
        <time>1970-01-01T00:08:06.000Z</time>
      </trkpt>
      <trkpt lat="50.34594" lon="4.26958">
        <ele>142</ele>
        <time>1970-01-01T00:08:07.000Z</time>
      </trkpt>
      <trkpt lat="50.34604" lon="4.26872">
        <ele>147</ele>
        <time>1970-01-01T00:08:08.000Z</time>
      </trkpt>
      <trkpt lat="50.34604" lon="4.26848">
        <ele>148</ele>
        <time>1970-01-01T00:08:09.000Z</time>
      </trkpt>
      <trkpt lat="50.34599" lon="4.26801">
        <ele>149</ele>
        <time>1970-01-01T00:08:10.000Z</time>
      </trkpt>
      <trkpt lat="50.34601" lon="4.2678">
        <ele>149</ele>
        <time>1970-01-01T00:08:11.000Z</time>
      </trkpt>
      <trkpt lat="50.34605" lon="4.26732">
        <ele>148</ele>
        <time>1970-01-01T00:08:12.000Z</time>
      </trkpt>
      <trkpt lat="50.34616" lon="4.26656">
        <ele>146</ele>
        <time>1970-01-01T00:08:13.000Z</time>
      </trkpt>
      <trkpt lat="50.3462" lon="4.26653">
        <ele>146</ele>
        <time>1970-01-01T00:08:14.000Z</time>
      </trkpt>
      <trkpt lat="50.34616" lon="4.26642">
        <ele>145</ele>
        <time>1970-01-01T00:08:15.000Z</time>
      </trkpt>
      <trkpt lat="50.34604" lon="4.26633">
        <ele>145</ele>
        <time>1970-01-01T00:08:16.000Z</time>
      </trkpt>
      <trkpt lat="50.34627" lon="4.26569">
        <ele>139</ele>
        <time>1970-01-01T00:08:17.000Z</time>
      </trkpt>
      <trkpt lat="50.34625" lon="4.26563">
        <ele>139</ele>
        <time>1970-01-01T00:08:18.000Z</time>
      </trkpt>
      <trkpt lat="50.34625" lon="4.26554">
        <ele>138</ele>
        <time>1970-01-01T00:08:19.000Z</time>
      </trkpt>
      <trkpt lat="50.34629" lon="4.26545">
        <ele>138</ele>
        <time>1970-01-01T00:08:20.000Z</time>
      </trkpt>
      <trkpt lat="50.34631" lon="4.26529">
        <ele>138</ele>
        <time>1970-01-01T00:08:21.000Z</time>
      </trkpt>
      <trkpt lat="50.34637" lon="4.26513">
        <ele>138</ele>
        <time>1970-01-01T00:08:22.000Z</time>
      </trkpt>
      <trkpt lat="50.34637" lon="4.26505">
        <ele>137</ele>
        <time>1970-01-01T00:08:23.000Z</time>
      </trkpt>
      <trkpt lat="50.34621" lon="4.26505">
        <ele>136</ele>
        <time>1970-01-01T00:08:24.000Z</time>
      </trkpt>
      <trkpt lat="50.34616" lon="4.26497">
        <ele>132</ele>
        <time>1970-01-01T00:08:25.000Z</time>
      </trkpt>
      <trkpt lat="50.34618" lon="4.26494">
        <ele>132</ele>
        <time>1970-01-01T00:08:26.000Z</time>
      </trkpt>
      <trkpt lat="50.34615" lon="4.26485">
        <ele>132</ele>
        <time>1970-01-01T00:08:27.000Z</time>
      </trkpt>
      <trkpt lat="50.3461" lon="4.26481">
        <ele>131</ele>
        <time>1970-01-01T00:08:28.000Z</time>
      </trkpt>
      <trkpt lat="50.34669" lon="4.26456">
        <ele>138</ele>
        <time>1970-01-01T00:08:29.000Z</time>
      </trkpt>
    </trkseg>
  </trk>
</gpx>